createdAt,value
2019-05-10T00:00:37.144Z,31.79
2019-05-10T00:01:37.132Z,30.60
2019-05-10T00:02:37.119Z,29.00
2019-05-10T00:03:37.111Z,34.20
2019-05-10T00:04:37.102Z,34.40
2019-05-10T00:05:37.489Z,27.29
2019-05-10T00:06:37.083Z,33.00
2019-05-10T00:07:37.068Z,28.39
2019-05-10T00:08:37.060Z,28.20
2019-05-10T00:09:37.048Z,38.20
2019-05-10T00:10:37.037Z,35.29
2019-05-10T00:11:37.076Z,25.20
2019-05-10T00:12:37.018Z,33.90
2019-05-10T00:13:37.006Z,33.00
2019-05-10T00:14:37.000Z,31.50
2019-05-10T00:15:36.989Z,30.39
2019-05-10T00:16:36.978Z,37.40
2019-05-10T00:17:37.017Z,34.50
2019-05-10T00:18:36.957Z,41.00
2019-05-10T00:19:36.943Z,31.89
2019-05-10T00:20:36.934Z,28.00
2019-05-10T00:21:36.925Z,26.00
2019-05-10T00:22:36.908Z,28.50
2019-05-10T00:23:37.052Z,28.20
2019-05-10T00:24:36.888Z,33.00
2019-05-10T00:25:36.881Z,27.10
2019-05-10T00:26:36.867Z,41.29
2019-05-10T00:27:36.862Z,32.40
2019-05-10T00:28:36.867Z,28.29
2019-05-10T00:29:36.924Z,27.00
2019-05-10T00:30:36.826Z,32.90
2019-05-10T00:31:36.817Z,38.20
2019-05-10T00:37:37.383Z,34.90
2019-05-10T00:38:04.160Z,33.50
2019-05-10T00:39:04.154Z,30.00
2019-05-10T00:40:04.189Z,31.20
2019-05-10T00:41:04.127Z,37.00
2019-05-10T00:42:04.118Z,32.20
2019-05-10T00:43:04.107Z,32.70
2019-05-10T00:44:04.095Z,37.59
2019-05-10T00:45:04.087Z,50.90
2019-05-10T00:46:04.124Z,38.40
2019-05-10T00:47:04.064Z,40.59
2019-05-10T00:48:04.059Z,44.09
2019-05-10T00:49:04.045Z,35.00
2019-05-10T00:50:10.299Z,34.50
2019-05-10T00:51:04.175Z,34.50
2019-05-10T00:52:04.012Z,28.79
2019-05-10T00:53:04.003Z,32.29
2019-05-10T00:54:03.990Z,35.70
2019-05-10T00:55:17.775Z,43.00
2019-05-10T00:56:31.869Z,44.70
2019-05-10T00:57:28.824Z,44.20
2019-05-10T00:58:28.813Z,54.40
2019-05-10T00:59:28.800Z,49.90
2019-05-10T01:00:28.797Z,48.00
2019-05-10T01:01:28.835Z,42.79
2019-05-10T01:02:28.769Z,37.00
2019-05-10T01:03:28.759Z,35.09
2019-05-10T01:04:28.751Z,49.59
2019-05-10T01:05:28.735Z,43.20
2019-05-10T01:06:28.724Z,52.20
2019-05-10T01:07:28.864Z,52.29
2019-05-10T01:08:28.704Z,52.00
2019-05-10T01:09:28.696Z,40.00
2019-05-10T01:10:28.682Z,47.29
2019-05-10T01:11:28.669Z,35.70
2019-05-10T01:12:28.661Z,49.50
2019-05-10T01:14:32.738Z,50.40
2019-05-10T01:15:28.629Z,50.09
2019-05-10T01:16:28.617Z,41.00
2019-05-10T01:17:28.607Z,42.40
2019-05-10T01:18:28.596Z,35.79
2019-05-10T01:19:28.587Z,51.79
2019-05-10T01:20:28.624Z,46.90
2019-05-10T01:21:28.566Z,36.09
2019-05-10T01:22:28.562Z,39.59
2019-05-10T01:23:28.544Z,38.70
2019-05-10T01:24:28.534Z,35.09
2019-05-10T01:25:35.366Z,38.09
2019-05-10T01:26:29.656Z,39.50
2019-05-10T01:27:28.502Z,36.40
2019-05-10T01:28:28.489Z,29.29
2019-05-10T01:29:28.478Z,43.40
2019-05-10T01:30:28.468Z,36.09
2019-05-10T01:31:28.458Z,35.00
2019-05-10T01:32:28.497Z,31.10
2019-05-10T01:33:41.174Z,42.20
2019-05-10T01:34:28.426Z,40.20
2019-05-10T01:35:28.417Z,43.20
2019-05-10T01:36:28.406Z,41.50
2019-05-10T01:37:28.546Z,41.40
2019-05-10T01:38:28.384Z,43.59
2019-05-10T01:39:28.375Z,37.29
2019-05-10T01:40:28.367Z,44.90
2019-05-10T01:41:28.353Z,42.79
2019-05-10T01:42:28.342Z,42.20
2019-05-10T01:43:28.385Z,42.40
2019-05-10T01:44:28.320Z,35.40
2019-05-10T01:45:28.315Z,46.20
2019-05-10T01:46:28.303Z,41.50
2019-05-10T01:47:28.291Z,37.79
2019-05-10T01:48:34.550Z,34.29
2019-05-10T01:49:28.324Z,34.70
2019-05-10T01:50:28.262Z,38.00
2019-05-10T01:51:28.251Z,37.50
2019-05-10T01:52:28.237Z,37.20
2019-05-10T01:53:40.965Z,39.50
2019-05-10T01:58:28.231Z,43.29
2019-05-10T01:59:28.165Z,39.59
2019-05-10T02:00:28.155Z,37.20
2019-05-10T02:01:28.150Z,45.20
2019-05-10T02:02:28.134Z,44.20
2019-05-10T02:03:28.274Z,37.40
2019-05-10T02:04:28.119Z,39.29
2019-05-10T02:05:28.109Z,39.50
2019-05-10T02:06:40.828Z,33.70
2019-05-10T02:07:28.085Z,38.20
2019-05-10T02:08:28.075Z,40.00
2019-05-10T02:09:28.115Z,44.59
2019-05-10T02:10:28.054Z,40.70
2019-05-10T02:11:28.046Z,41.70
2019-05-10T02:12:28.039Z,35.50
2019-05-10T02:13:28.026Z,32.70
2019-05-10T02:14:28.016Z,41.20
2019-05-10T02:16:28.045Z,32.20
2019-05-10T02:17:27.985Z,38.20
2019-05-10T02:18:27.973Z,35.20
2019-05-10T02:19:27.965Z,32.40
2019-05-10T02:20:27.954Z,35.59
2019-05-10T02:21:28.091Z,33.29
2019-05-10T02:22:27.932Z,40.09
2019-05-10T02:23:27.924Z,38.00
2019-05-10T02:24:27.917Z,34.79
2019-05-10T02:25:27.901Z,41.20
2019-05-10T02:27:27.929Z,43.00
2019-05-10T02:28:27.871Z,39.20
2019-05-10T02:29:27.861Z,33.29
2019-05-10T02:33:45.312Z,35.40
2019-05-10T02:34:26.099Z,35.09
2019-05-10T02:35:26.090Z,33.20
2019-05-10T02:36:26.085Z,37.70
2019-05-10T02:37:26.066Z,42.70
2019-05-10T02:38:26.205Z,37.00
2019-05-10T02:39:26.053Z,34.59
2019-05-10T02:40:26.041Z,41.09
2019-05-10T02:41:26.029Z,38.09
2019-05-10T02:42:26.018Z,35.09
2019-05-10T02:43:26.008Z,29.00
2019-05-10T02:44:26.099Z,28.50
2019-05-10T02:45:25.988Z,29.00
2019-05-10T02:46:25.978Z,36.50
2019-05-10T02:47:25.969Z,28.00
2019-05-10T02:48:25.960Z,29.10
2019-05-10T02:49:25.951Z,36.40
2019-05-10T02:50:25.991Z,30.50
2019-05-10T02:51:25.949Z,35.09
2019-05-10T02:52:25.922Z,34.00
2019-05-10T02:53:25.910Z,35.29
2019-05-10T02:54:25.904Z,39.29
2019-05-10T02:55:25.893Z,32.00
2019-05-10T02:56:31.316Z,39.50
2019-05-10T02:57:25.872Z,35.50
2019-05-10T02:58:25.865Z,32.29
2019-05-10T02:59:25.854Z,41.59
2019-05-10T03:00:25.842Z,53.09
2019-05-10T03:01:25.834Z,39.79
2019-05-10T03:02:25.886Z,39.50
2019-05-10T03:03:25.817Z,36.40
2019-05-10T03:04:25.805Z,38.20
2019-05-10T03:05:25.799Z,40.00
2019-05-10T03:06:25.787Z,36.29
2019-05-10T03:07:25.778Z,41.50
2019-05-10T03:08:25.815Z,40.70
2019-05-10T03:09:25.755Z,40.90
2019-05-10T03:10:25.746Z,40.50
2019-05-10T03:11:25.736Z,49.70
2019-05-10T03:12:25.740Z,49.90
2019-05-10T03:13:27.227Z,58.50
2019-05-10T03:14:25.858Z,63.40
2019-05-10T03:15:25.699Z,57.00
2019-05-10T03:16:25.692Z,57.40
2019-05-10T03:17:25.691Z,48.40
2019-05-10T03:18:25.669Z,55.09
2019-05-10T03:19:25.659Z,62.09
2019-05-10T03:20:25.751Z,47.70
2019-05-10T03:21:25.644Z,54.50
2019-05-10T03:22:25.644Z,43.90
2019-05-10T03:23:25.622Z,49.09
2019-05-10T03:24:27.890Z,45.20
2019-05-10T03:25:25.602Z,51.20
2019-05-10T03:26:25.646Z,54.09
2019-05-10T03:27:25.584Z,47.70
2019-05-10T03:28:25.575Z,63.20
2019-05-10T03:29:25.572Z,60.70
2019-05-10T03:30:25.554Z,56.09
2019-05-10T03:31:25.579Z,49.59
2019-05-10T03:32:25.687Z,52.70
2019-05-10T03:33:25.526Z,44.50
2019-05-10T03:34:25.549Z,43.70
2019-05-10T03:35:25.506Z,45.59
2019-05-10T03:36:25.533Z,60.00
2019-05-10T03:37:25.486Z,52.29
2019-05-10T03:38:25.527Z,53.90
2019-05-10T03:39:25.469Z,50.09
2019-05-10T03:40:25.459Z,51.40
2019-05-10T03:41:25.454Z,49.40
2019-05-10T03:42:25.441Z,49.70
2019-05-10T03:43:25.480Z,43.90
2019-05-10T03:44:25.419Z,49.20
2019-05-10T03:45:25.410Z,58.59
2019-05-10T03:46:25.403Z,51.59
2019-05-10T03:47:25.392Z,47.50
2019-05-10T03:48:25.382Z,59.79
2019-05-10T03:49:25.474Z,49.50
2019-05-10T03:50:25.365Z,45.00
2019-05-10T03:51:25.352Z,49.20
2019-05-10T03:52:25.345Z,55.29
2019-05-10T03:53:25.333Z,44.29
2019-05-10T03:54:25.322Z,55.29
2019-05-10T03:55:25.366Z,56.09
2019-05-10T03:56:25.307Z,52.20
2019-05-10T03:57:25.296Z,40.09
2019-05-10T03:58:25.283Z,53.50
2019-05-10T03:59:25.277Z,43.90
2019-05-10T04:00:25.276Z,54.40
2019-05-10T04:01:25.359Z,52.50
2019-05-10T04:02:25.265Z,43.90
2019-05-10T04:03:25.244Z,46.70
2019-05-10T04:04:25.246Z,46.59
2019-05-10T04:05:25.230Z,51.40
2019-05-10T04:06:25.383Z,48.09
2019-05-10T04:07:25.199Z,53.79
2019-05-10T04:08:25.189Z,46.70
2019-05-10T04:09:25.177Z,54.09
2019-05-10T04:10:25.172Z,50.50
2019-05-10T04:11:25.159Z,51.09
2019-05-10T04:12:25.251Z,43.20
2019-05-10T04:13:25.141Z,38.50
2019-05-10T04:14:25.131Z,40.90
2019-05-10T04:15:25.121Z,37.70
2019-05-10T04:16:25.111Z,36.79
2019-05-10T04:17:25.110Z,33.00
2019-05-10T04:18:25.140Z,45.90
2019-05-10T04:19:25.081Z,45.40
2019-05-10T04:20:25.086Z,41.59
2019-05-10T04:21:25.065Z,35.79
2019-05-10T04:22:25.062Z,30.70
2019-05-10T04:23:25.047Z,36.70
2019-05-10T04:24:25.285Z,40.20
2019-05-10T04:25:25.037Z,33.79
2019-05-10T04:26:25.018Z,33.29
2019-05-10T04:27:32.529Z,39.20
2019-05-10T04:28:49.920Z,30.00
2019-05-10T04:29:49.896Z,29.39
2019-05-10T04:30:49.787Z,27.10
2019-05-10T04:31:49.776Z,31.50
2019-05-10T04:32:49.767Z,30.89
2019-05-10T04:33:49.756Z,37.40
2019-05-10T04:34:49.847Z,32.29
2019-05-10T04:35:49.735Z,28.20
2019-05-10T04:36:49.726Z,35.79
2019-05-10T04:37:49.717Z,37.59
2019-05-10T04:38:49.707Z,36.29
2019-05-10T04:39:49.700Z,27.60
2019-05-10T04:40:49.737Z,33.40
2019-05-10T04:41:49.698Z,36.20
2019-05-10T04:42:49.668Z,31.50
2019-05-10T04:43:49.664Z,34.29
2019-05-10T04:44:53.207Z,33.29
2019-05-10T04:45:49.647Z,32.70
2019-05-10T04:46:49.777Z,26.29
2019-05-10T04:47:49.620Z,27.89
2019-05-10T04:48:49.616Z,30.89
2019-05-10T04:49:49.611Z,24.20
2019-05-10T04:50:49.695Z,24.70
2019-05-10T04:51:49.590Z,28.29
2019-05-10T04:52:49.675Z,28.70
2019-05-10T04:53:49.562Z,21.89
2019-05-10T04:54:49.550Z,16.39
2019-05-10T04:55:49.544Z,17.39
2019-05-10T04:56:49.533Z,20.20
2019-05-10T04:57:51.197Z,19.60
2019-05-10T04:58:49.577Z,19.20
2019-05-10T04:59:49.504Z,18.70
2019-05-10T05:00:49.500Z,16.60
2019-05-10T05:01:49.486Z,18.20
2019-05-10T05:02:49.478Z,23.50
2019-05-10T05:03:49.466Z,15.19
2019-05-10T05:04:49.712Z,20.50
2019-05-10T05:05:49.454Z,19.89
2019-05-10T05:06:49.435Z,18.29
2019-05-10T05:07:49.429Z,21.00
2019-05-10T05:08:49.417Z,19.39
2019-05-10T05:09:49.405Z,23.10
2019-05-10T05:10:49.448Z,16.10
2019-05-10T05:11:49.385Z,15.50
2019-05-10T05:12:49.373Z,26.39
2019-05-10T05:13:49.365Z,19.79
2019-05-10T05:14:49.355Z,22.29
2019-05-10T05:15:49.341Z,22.79
2019-05-10T05:16:49.384Z,18.79
2019-05-10T05:17:49.323Z,24.79
2019-05-10T05:18:49.450Z,19.10
2019-05-10T05:19:49.322Z,20.39
2019-05-10T05:20:49.291Z,16.00
2019-05-10T05:21:49.430Z,19.00
2019-05-10T05:22:49.270Z,17.50
2019-05-10T05:23:49.266Z,20.10
2019-05-10T05:24:49.249Z,16.60
2019-05-10T05:25:49.241Z,17.70
2019-05-10T05:26:49.279Z,16.89
2019-05-10T05:28:05.371Z,16.29
2019-05-10T05:28:50.301Z,22.50
2019-05-10T05:29:49.199Z,20.10
2019-05-10T05:30:49.192Z,17.00
2019-05-10T05:31:54.121Z,11.39
2019-05-10T05:33:14.026Z,14.60
2019-05-10T05:34:14.019Z,13.39
2019-05-10T05:35:15.518Z,17.29
2019-05-10T05:36:13.996Z,17.79
2019-05-10T05:37:13.986Z,14.00
2019-05-10T05:38:14.127Z,19.10
2019-05-10T05:39:13.978Z,13.80
2019-05-10T05:40:13.962Z,12.69
2019-05-10T05:41:13.945Z,16.00
2019-05-10T05:42:13.936Z,21.10
2019-05-10T05:43:13.925Z,22.29
2019-05-10T05:44:13.966Z,18.60
2019-05-10T05:45:13.905Z,15.60
2019-05-10T05:46:14.581Z,18.29
2019-05-10T05:47:13.884Z,19.60
2019-05-10T05:48:15.967Z,17.89
2019-05-10T05:49:38.724Z,14.19
2019-05-10T05:50:38.716Z,15.00
2019-05-10T05:51:38.700Z,13.60
2019-05-10T05:52:38.693Z,17.00
2019-05-10T05:53:42.417Z,16.10
2019-05-10T05:54:38.822Z,16.20
2019-05-10T05:55:38.663Z,16.79
2019-05-10T05:56:38.654Z,24.50
2019-05-10T05:57:38.644Z,16.79
2019-05-10T05:58:44.797Z,27.00
2019-05-10T05:59:39.768Z,21.50
2019-05-10T06:00:44.713Z,27.89
2019-05-10T06:01:39.700Z,27.10
2019-05-10T06:02:44.346Z,20.70
2019-05-10T06:04:06.468Z,14.10
2019-05-10T06:05:03.434Z,15.19
2019-05-10T06:06:15.583Z,16.10
2019-05-10T06:07:04.462Z,16.20
2019-05-10T06:08:03.561Z,16.39
2019-05-10T06:09:03.344Z,21.20
2019-05-10T06:10:03.588Z,12.10
2019-05-10T06:11:03.324Z,19.89
2019-05-10T06:12:07.324Z,15.80
2019-05-10T06:13:30.215Z,13.89
2019-05-10T06:14:28.104Z,17.00
2019-05-10T06:15:28.945Z,15.19
2019-05-10T06:16:28.083Z,12.69
2019-05-10T06:17:29.362Z,16.79
2019-05-10T06:18:28.062Z,10.89
2019-05-10T06:19:29.619Z,15.30
2019-05-10T06:20:28.057Z,12.19
2019-05-10T06:21:28.106Z,11.10
2019-05-10T06:22:28.022Z,12.39
2019-05-10T06:23:29.325Z,13.00
2019-05-10T06:24:54.018Z,12.19
2019-05-10T06:25:52.806Z,12.80
2019-05-10T06:26:52.949Z,13.39
2019-05-10T06:27:52.784Z,14.00
2019-05-10T06:28:59.418Z,13.80
2019-05-10T06:29:53.859Z,19.10
2019-05-10T06:30:52.756Z,11.19
2019-05-10T06:31:52.794Z,13.30
2019-05-10T06:32:59.511Z,16.79
2019-05-10T06:34:17.531Z,12.89
2019-05-10T06:35:19.453Z,11.69
2019-05-10T06:36:17.594Z,11.89
2019-05-10T06:37:17.598Z,11.69
2019-05-10T06:38:17.491Z,20.60
2019-05-10T06:39:17.480Z,13.39
2019-05-10T06:40:17.480Z,10.80
2019-05-10T06:41:19.269Z,15.19
2019-05-10T06:42:17.451Z,12.10
2019-05-10T06:43:17.485Z,11.60
2019-05-10T06:44:17.426Z,17.20
2019-05-10T06:45:17.417Z,13.89
2019-05-10T06:46:17.408Z,18.39
2019-05-10T06:47:17.394Z,18.89
2019-05-10T06:48:26.330Z,17.79
2019-05-10T06:49:50.737Z,13.19
2019-05-10T06:51:09.613Z,9.60
2019-05-10T06:52:07.120Z,13.50
2019-05-10T06:53:10.534Z,20.20
2019-05-10T06:54:07.099Z,11.69
2019-05-10T06:55:07.140Z,18.00
2019-05-10T06:56:07.093Z,13.39
2019-05-10T06:57:11.185Z,12.89
2019-05-10T06:58:36.318Z,25.20
2019-05-10T07:00:05.737Z,23.00
2019-05-10T07:01:21.519Z,20.00
2019-05-10T07:02:26.175Z,18.79
2019-05-10T07:03:46.310Z,15.69
2019-05-10T07:04:46.299Z,15.19
2019-05-10T07:05:46.289Z,19.39
2019-05-10T07:06:46.379Z,17.89
2019-05-10T07:07:46.267Z,20.60
2019-05-10T07:08:51.953Z,21.00
2019-05-10T07:10:18.780Z,19.00
2019-05-10T07:11:35.863Z,25.00
2019-05-10T07:12:36.011Z,22.20
2019-05-10T07:13:40.529Z,24.20
2019-05-10T07:15:03.680Z,18.00
2019-05-10T07:16:00.629Z,19.50
2019-05-10T07:17:02.778Z,17.89
2019-05-10T07:18:00.707Z,17.29
2019-05-10T07:19:02.157Z,17.70
2019-05-10T07:20:00.584Z,15.89
2019-05-10T07:21:06.145Z,20.39
2019-05-10T07:22:01.666Z,23.29
2019-05-10T07:23:05.975Z,24.60
2019-05-10T07:24:01.694Z,17.89
2019-05-10T07:25:04.275Z,16.60
2019-05-10T07:26:00.525Z,20.70
2019-05-10T07:27:02.091Z,19.20
2019-05-10T07:28:00.521Z,14.69
2019-05-10T07:29:00.493Z,19.10
2019-05-10T07:30:00.533Z,17.10
2019-05-10T07:31:00.473Z,15.60
2019-05-10T07:32:00.462Z,18.70
2019-05-10T07:33:02.114Z,15.80
2019-05-10T07:34:00.441Z,12.19
2019-05-10T07:35:01.140Z,18.10
2019-05-10T07:36:00.432Z,14.00
2019-05-10T07:37:01.930Z,18.70
2019-05-10T07:38:00.399Z,16.60
2019-05-10T07:39:02.839Z,15.80
2019-05-10T07:40:25.239Z,17.00
2019-05-10T07:41:27.288Z,18.00
2019-05-10T07:42:25.214Z,21.29
2019-05-10T07:43:28.598Z,18.89
2019-05-10T07:44:25.194Z,16.39
2019-05-10T07:45:25.771Z,19.50
2019-05-10T07:46:25.175Z,18.89
2019-05-10T07:47:30.465Z,14.00
2019-05-10T07:48:53.311Z,20.60
2019-05-10T07:49:49.954Z,20.00
2019-05-10T07:50:51.989Z,15.00
2019-05-10T07:51:49.934Z,14.60
2019-05-10T07:52:49.924Z,20.10
2019-05-10T07:53:49.914Z,18.10
2019-05-10T07:54:49.904Z,17.89
2019-05-10T07:55:49.894Z,14.60
2019-05-10T07:56:49.935Z,19.39
2019-05-10T07:57:49.872Z,18.50
2019-05-10T07:58:49.867Z,18.29
2019-05-10T07:59:51.284Z,23.60
2019-05-10T08:00:49.839Z,21.20
2019-05-10T08:01:49.839Z,19.39
2019-05-10T08:02:57.732Z,17.70
2019-05-10T08:04:21.972Z,13.80
2019-05-10T08:05:39.421Z,20.39
2019-05-10T08:06:44.068Z,19.79
2019-05-10T08:08:04.361Z,24.50
2019-05-10T08:09:07.115Z,19.20
2019-05-10T08:10:04.912Z,21.89
2019-05-10T08:11:04.386Z,19.89
2019-05-10T08:12:05.284Z,18.79
2019-05-10T08:13:04.162Z,16.50
2019-05-10T08:14:06.542Z,25.20
2019-05-10T08:15:05.237Z,18.10
2019-05-10T08:16:05.388Z,18.50
2019-05-10T08:17:06.203Z,22.70
2019-05-10T08:18:04.114Z,16.79
2019-05-10T08:19:04.100Z,26.29
2019-05-10T08:20:08.894Z,20.10
2019-05-10T08:21:28.888Z,21.79
2019-05-10T08:22:32.775Z,19.10
2019-05-10T08:23:54.048Z,26.10
2019-05-10T08:24:56.338Z,25.20
2019-05-10T08:25:53.812Z,17.70
2019-05-10T08:26:57.183Z,24.20
2019-05-10T08:27:55.421Z,12.19
2019-05-10T08:28:53.627Z,14.80
2019-05-10T08:30:17.906Z,11.60
2019-05-10T08:31:18.513Z,11.69
2019-05-10T08:32:19.321Z,11.80
2019-05-10T08:33:18.502Z,11.10
2019-05-10T08:34:18.483Z,12.89
2019-05-10T08:35:18.907Z,16.20
2019-05-10T08:36:18.564Z,19.00
2019-05-10T08:37:30.443Z,19.79
2019-05-10T08:38:47.148Z,11.30
2019-05-10T08:40:08.050Z,11.19
2019-05-10T08:41:13.209Z,11.10
2019-05-10T08:42:30.434Z,16.70
2019-05-10T08:43:38.994Z,19.50
2019-05-10T08:45:03.636Z,15.39
2019-05-10T08:46:28.658Z,13.39
2019-05-10T08:47:47.278Z,17.70
2019-05-10T08:48:51.378Z,16.50
2019-05-10T08:50:08.132Z,13.80
2019-05-10T08:51:12.505Z,18.20
2019-05-10T08:52:12.290Z,19.29
2019-05-10T08:53:16.272Z,30.89
2019-05-10T08:54:12.193Z,16.20
2019-05-10T08:55:12.561Z,12.50
2019-05-10T08:56:13.866Z,18.00
2019-05-10T08:57:43.301Z,23.79
2019-05-10T08:59:03.875Z,13.69
2019-05-10T09:00:07.169Z,14.50
2019-05-10T09:01:30.396Z,14.39
2019-05-10T09:02:52.042Z,21.60
2019-05-10T09:03:55.059Z,24.29
2019-05-10T09:05:22.609Z,13.50
2019-05-10T09:06:42.061Z,11.19
2019-05-10T09:07:42.927Z,12.80
2019-05-10T09:08:42.975Z,17.10
2019-05-10T09:09:49.444Z,12.89
2019-05-10T09:10:42.286Z,10.89
2019-05-10T09:11:43.942Z,17.39
2019-05-10T09:12:50.290Z,15.50
2019-05-10T09:14:05.673Z,13.19
2019-05-10T09:15:10.025Z,13.89
2019-05-10T09:16:39.485Z,15.10
2019-05-10T09:17:32.457Z,13.10
2019-05-10T09:18:30.440Z,17.70
2019-05-10T09:19:39.249Z,16.79
2019-05-10T09:21:00.425Z,9.89
2019-05-10T09:22:24.043Z,19.00
2019-05-10T09:23:44.885Z,22.00
2019-05-10T09:24:48.595Z,21.00
2019-05-10T09:25:44.915Z,14.10
2019-05-10T09:26:46.919Z,15.80
2019-05-10T09:28:16.474Z,20.39
2019-05-10T09:29:12.094Z,18.20
2019-05-10T09:30:14.204Z,15.50
2019-05-10T09:31:34.586Z,18.20
2019-05-10T09:32:34.583Z,15.30
2019-05-10T09:33:34.564Z,11.80
2019-05-10T09:34:34.554Z,12.00
2019-05-10T09:35:38.876Z,15.60
2019-05-10T09:36:59.595Z,29.00
2019-05-10T09:37:59.385Z,25.39
2019-05-10T09:38:59.374Z,17.39
2019-05-10T09:40:08.112Z,13.50
2019-05-10T09:41:27.567Z,8.30
2019-05-10T09:42:49.311Z,18.10
2019-05-10T09:43:50.607Z,19.10
2019-05-10T09:44:49.291Z,18.79
2019-05-10T09:45:49.280Z,20.00
2019-05-10T09:46:49.267Z,13.80
2019-05-10T09:47:49.307Z,18.70
2019-05-10T09:48:54.639Z,16.00
2019-05-10T09:50:14.056Z,14.89
2019-05-10T09:51:18.943Z,13.00
2019-05-10T09:52:38.834Z,20.29
2019-05-10T09:53:38.878Z,19.10
2019-05-10T09:54:38.814Z,19.00
2019-05-10T09:55:38.806Z,14.60
2019-05-10T09:56:44.220Z,16.10
2019-05-10T09:57:38.783Z,15.60
2019-05-10T09:58:38.871Z,18.00
2019-05-10T09:59:38.912Z,17.29
2019-05-10T10:00:38.752Z,16.00
2019-05-10T10:01:38.742Z,18.00
2019-05-10T10:02:40.550Z,23.70
2019-05-10T10:03:43.088Z,18.00
2019-05-10T10:04:39.860Z,18.00
2019-05-10T10:05:40.286Z,22.39
2019-05-10T10:06:41.806Z,14.30
2019-05-10T10:07:39.777Z,25.60
2019-05-10T10:08:43.526Z,27.79
2019-05-10T10:10:03.519Z,16.70
2019-05-10T10:11:13.485Z,19.39
2019-05-10T10:12:28.973Z,19.60
2019-05-10T10:13:39.576Z,17.39
2019-05-10T10:14:53.045Z,20.29
2019-05-10T10:15:53.183Z,18.50
2019-05-10T10:16:58.354Z,17.10
2019-05-10T10:18:21.444Z,14.19
2019-05-10T10:19:42.633Z,23.00
2019-05-10T10:20:44.998Z,21.70
2019-05-10T10:21:42.699Z,18.00
2019-05-10T10:22:43.331Z,14.30
2019-05-10T10:23:42.578Z,19.60
2019-05-10T10:24:42.567Z,19.10
2019-05-10T10:25:42.564Z,18.70
2019-05-10T10:26:42.546Z,22.89
2019-05-10T10:27:42.589Z,23.00
2019-05-10T10:28:42.531Z,19.10
2019-05-10T10:29:42.512Z,18.39
2019-05-10T10:30:42.504Z,15.50
2019-05-10T10:31:51.476Z,16.89
2019-05-10T10:33:11.392Z,22.29
2019-05-10T10:34:32.677Z,18.10
2019-05-10T10:35:32.230Z,18.70
2019-05-10T10:36:32.230Z,26.29
2019-05-10T10:37:32.209Z,31.60
2019-05-10T10:38:37.088Z,23.29
2019-05-10T10:40:00.699Z,26.39
2019-05-10T10:41:26.162Z,28.60
2019-05-10T10:42:47.367Z,26.60
2019-05-10T10:43:48.419Z,23.39
2019-05-10T10:44:48.295Z,29.60
2019-05-10T10:45:46.562Z,23.60
2019-05-10T10:46:47.973Z,24.60
2019-05-10T10:47:47.159Z,34.40
2019-05-10T10:48:49.040Z,29.00
2019-05-10T10:49:46.521Z,21.50
2019-05-10T10:50:53.835Z,24.60
2019-05-10T10:52:13.467Z,36.90
2019-05-10T10:53:11.296Z,34.90
2019-05-10T10:54:11.390Z,28.20
2019-05-10T10:55:13.302Z,22.00
2019-05-10T10:56:11.269Z,27.20
2019-05-10T10:57:11.256Z,23.79
2019-05-10T10:58:11.245Z,25.89
2019-05-10T10:59:11.236Z,14.60
2019-05-10T11:00:11.278Z,15.50
2019-05-10T11:01:21.375Z,15.00
2019-05-10T11:02:36.010Z,14.19
2019-05-10T11:03:36.001Z,12.89
2019-05-10T11:04:40.613Z,9.80
2019-05-10T11:06:00.839Z,7.90
2019-05-10T11:07:09.835Z,7.80
2019-05-10T11:08:25.627Z,10.39
2019-05-10T11:09:25.616Z,10.00
2019-05-10T11:10:25.606Z,10.19
2019-05-10T11:11:30.719Z,12.50
2019-05-10T11:12:51.243Z,11.50
2019-05-10T11:13:58.163Z,14.80
2019-05-10T11:14:51.468Z,11.10
2019-05-10T11:15:51.666Z,12.10
2019-05-10T11:16:52.967Z,16.39
2019-05-10T11:17:50.667Z,10.89
2019-05-10T11:18:51.956Z,10.30
2019-05-10T11:19:50.325Z,14.50
2019-05-10T11:20:53.865Z,18.70
2019-05-10T11:21:51.439Z,11.89
2019-05-10T11:22:53.388Z,16.50
2019-05-10T11:23:50.280Z,12.50
2019-05-10T11:24:51.732Z,13.39
2019-05-10T11:26:15.068Z,8.60
2019-05-10T11:27:17.193Z,8.69
2019-05-10T11:28:15.197Z,13.19
2019-05-10T11:29:23.067Z,14.89
2019-05-10T11:30:39.839Z,13.19
2019-05-10T11:31:41.435Z,12.69
2019-05-10T11:32:41.811Z,20.60
2019-05-10T11:33:41.436Z,16.10
2019-05-10T11:34:39.794Z,27.70
2019-05-10T11:35:41.695Z,22.39
2019-05-10T11:36:40.529Z,24.20
2019-05-10T11:37:42.080Z,15.10
2019-05-10T11:38:41.965Z,13.00
2019-05-10T11:39:45.502Z,17.39
2019-05-10T11:41:07.154Z,15.60
2019-05-10T11:42:30.974Z,16.70
2019-05-10T11:43:31.295Z,15.39
2019-05-10T11:44:31.525Z,28.10
2019-05-10T11:45:32.276Z,17.10
2019-05-10T11:46:31.040Z,15.19
2019-05-10T11:47:31.242Z,12.10
2019-05-10T11:48:36.771Z,19.79
2019-05-10T11:49:54.228Z,17.70
2019-05-10T11:50:54.220Z,15.30
2019-05-10T11:51:58.529Z,12.39
2019-05-10T11:52:54.195Z,13.30
2019-05-10T11:53:59.392Z,15.60
2019-05-10T11:54:54.228Z,18.60
2019-05-10T11:55:54.167Z,10.50
2019-05-10T11:56:58.555Z,11.19
2019-05-10T11:58:18.958Z,13.00
2019-05-10T11:59:21.635Z,12.19
2019-05-10T12:00:25.640Z,17.89
2019-05-10T12:01:43.736Z,18.60
2019-05-10T12:03:03.181Z,17.70
2019-05-10T12:04:13.035Z,14.80
2019-05-10T12:05:33.476Z,22.00
2019-05-10T12:06:33.315Z,20.10
2019-05-10T12:07:40.341Z,27.70
2019-05-10T12:09:02.169Z,14.30
2019-05-10T12:10:25.732Z,13.10
2019-05-10T12:11:32.461Z,12.00
2019-05-10T12:13:05.703Z,13.39
2019-05-10T12:14:13.783Z,16.29
2019-05-10T12:16:16.853Z,13.60
2019-05-10T12:17:14.299Z,16.10
2019-05-10T12:18:14.917Z,18.70
2019-05-10T12:19:19.838Z,12.89
2019-05-10T12:20:52.173Z,18.39
2019-05-10T12:22:04.692Z,19.60
2019-05-10T12:23:03.190Z,20.50
2019-05-10T12:24:10.588Z,23.79
2019-05-10T12:25:27.408Z,18.29
2019-05-10T12:26:06.530Z,15.00
2019-05-10T12:27:13.278Z,15.50
2019-05-10T12:27:18.899Z,20.70
2019-05-10T12:28:03.130Z,20.20
2019-05-10T12:29:11.562Z,19.50
2019-05-10T12:30:29.494Z,19.60
2019-05-10T12:31:55.155Z,18.70
2019-05-10T12:32:56.623Z,17.39
2019-05-10T12:33:52.896Z,17.89
2019-05-10T12:34:56.299Z,16.00
2019-05-10T12:35:51.532Z,19.10
2019-05-10T12:36:52.065Z,17.39
2019-05-10T12:37:54.167Z,21.20
2019-05-10T12:38:51.499Z,16.89
2019-05-10T12:39:53.170Z,13.60
2019-05-10T12:40:51.531Z,17.89
2019-05-10T12:41:53.025Z,19.10
2019-05-10T12:42:51.462Z,22.70
2019-05-10T12:43:51.813Z,16.70
2019-05-10T12:44:52.034Z,19.39
2019-05-10T12:45:51.920Z,15.89
2019-05-10T12:46:54.289Z,20.29
2019-05-10T12:47:51.982Z,15.89
2019-05-10T12:48:51.761Z,21.70
2019-05-10T12:49:54.014Z,34.09
2019-05-10T12:51:16.735Z,22.70
2019-05-10T12:52:16.338Z,23.29
2019-05-10T12:53:18.497Z,14.50
2019-05-10T12:54:18.551Z,20.29
2019-05-10T12:55:41.113Z,20.50
2019-05-10T12:56:43.740Z,21.20
2019-05-10T12:57:43.334Z,13.60
2019-05-10T12:58:41.072Z,26.50
2019-05-10T12:59:41.064Z,18.29
2019-05-10T13:00:41.051Z,16.50
2019-05-10T13:01:41.040Z,20.79
2019-05-10T13:02:44.963Z,21.20
2019-05-10T13:04:13.449Z,31.79
2019-05-10T13:05:32.311Z,24.29
2019-05-10T13:06:30.625Z,23.70
2019-05-10T13:07:30.619Z,24.89
2019-05-10T13:08:30.751Z,30.50
2019-05-10T13:09:39.991Z,26.00
2019-05-10T13:10:55.391Z,35.90
2019-05-10T13:12:03.144Z,33.90
2019-05-10T13:12:56.466Z,21.79
2019-05-10T13:13:55.485Z,22.29
2019-05-10T13:14:55.355Z,26.29
2019-05-10T13:15:55.341Z,19.79
2019-05-10T13:16:55.328Z,26.29
2019-05-10T13:17:55.322Z,21.10
2019-05-10T13:18:55.333Z,20.39
2019-05-10T13:19:58.345Z,23.50
2019-05-10T13:20:55.291Z,16.89
2019-05-10T13:21:58.744Z,24.60
2019-05-10T13:22:55.271Z,23.29
2019-05-10T13:23:55.458Z,18.00
2019-05-10T13:24:55.262Z,21.50
2019-05-10T13:25:55.392Z,32.40
2019-05-10T13:26:55.230Z,19.10
2019-05-10T13:27:55.221Z,28.29
2019-05-10T13:28:55.214Z,23.20
2019-05-10T13:29:55.197Z,23.39
2019-05-10T13:30:59.745Z,26.89
2019-05-10T13:32:20.525Z,22.20
2019-05-10T13:33:28.470Z,20.10
2019-05-10T13:34:44.829Z,22.20
2019-05-10T13:35:44.817Z,20.00
2019-05-10T13:36:44.813Z,22.29
2019-05-10T13:37:44.853Z,29.50
2019-05-10T13:38:49.085Z,22.79
2019-05-10T13:39:44.776Z,22.39
2019-05-10T13:40:45.587Z,26.10
2019-05-10T13:41:44.759Z,24.39
2019-05-10T13:42:46.046Z,29.60
2019-05-10T13:43:44.889Z,29.29